Time;durP1;ratioP1;P1;durP2;ratioP2;P2;SDS_P1;SDS_P2;PMS_P1;PMS_P2;Temp;Humidity;BMP_temperature;BMP_pressure;BME280_temperature;BME280_humidity;BME280_pressure;Samples;Min_cycle;Max_cycle;Signal;HPM_P1;HPM_P2
2021/12/19 00:00:50;;;;;;;2.87;2.10;;;;;;;1.57;100.00;100792.89;1769880;78;21539;-66
2021/12/19 00:11:13;;;;;;;3.83;2.02;;;;;;;1.49;100.00;100779.81;1765794;79;21019;-67
2021/12/19 00:13:42;;;;;;;3.77;2.00;;;;;;;1.48;100.00;100777.70;1766179;81;21579;-67
2021/12/19 00:16:10;;;;;;;2.80;1.80;;;;;;;1.50;100.00;100775.14;1756340;81;21040;-67
2021/12/19 00:18:37;;;;;;;4.15;1.77;;;;;;;1.50;100.00;100773.47;1753664;80;20991;-67
2021/12/19 00:21:06;;;;;;;4.47;1.80;;;;;;;1.44;100.00;100767.55;1747501;80;21104;-68
2021/12/19 00:23:33;;;;;;;2.70;1.70;;;;;;;1.45;100.00;100761.64;1754093;81;21052;-67
2021/12/19 00:26:01;;;;;;;2.52;1.57;;;;;;;1.46;100.00;100760.38;1756250;80;21047;-67
2021/12/19 00:28:31;;;;;;;3.02;1.65;;;;;;;1.44;100.00;100761.20;1753763;81;21055;-67
2021/12/19 00:30:58;;;;;;;1.82;1.50;;;;;;;1.38;100.00;100757.86;1767583;79;21084;-67
2021/12/19 00:33:25;;;;;;;3.67;1.90;;;;;;;1.34;100.00;100751.10;1759746;80;21016;-67
2021/12/19 00:35:52;;;;;;;3.75;2.00;;;;;;;1.36;100.00;100753.21;1690753;83;21606;-66
2021/12/19 00:38:19;;;;;;;3.75;1.90;;;;;;;1.33;100.00;100745.59;1721540;81;21164;-67
2021/12/19 00:40:49;;;;;;;3.80;2.00;;;;;;;1.33;100.00;100742.22;1749453;80;21037;-67
2021/12/19 00:43:37;;;;;;;3.77;2.30;;;;;;;1.32;100.00;100727.44;1744785;81;21090;-67
2021/12/19 00:46:08;;;;;;;3.27;2.12;;;;;;;1.37;100.00;100709.66;1768874;80;21024;-67
2021/12/19 00:48:39;;;;;;;3.62;2.35;;;;;;;1.37;100.00;100709.66;1753069;80;21033;-67
2021/12/19 00:51:07;;;;;;;4.85;2.50;;;;;;;1.32;100.00;100710.95;1692894;83;21008;-67
2021/12/19 00:53:35;;;;;;;3.60;2.35;;;;;;;1.27;100.00;100696.16;1753483;80;21042;-65
2021/12/19 00:56:04;;;;;;;4.10;2.30;;;;;;;1.26;100.00;100705.03;1757358;80;21011;-65
2021/12/19 00:58:32;;;;;;;6.87;2.65;;;;;;;1.26;100.00;100693.62;1687619;83;21036;-65
2021/12/19 01:01:01;;;;;;;5.58;2.80;;;;;;;1.31;100.00;100696.56;1762449;80;21058;-65
2021/12/19 01:03:28;;;;;;;5.58;2.50;;;;;;;1.34;100.00;100691.94;1750033;81;21621;-65
2021/12/19 01:05:55;;;;;;;4.83;2.45;;;;;;;1.36;100.00;100696.58;1716519;82;21153;-65
2021/12/19 01:08:21;;;;;;;4.53;2.42;;;;;;;1.30;100.00;100689.82;1747787;81;21542;-65
2021/12/19 01:10:49;;;;;;;4.22;2.47;;;;;;;1.33;100.00;100687.27;1756826;80;21016;-65
2021/12/19 01:13:18;;;;;;;7.08;2.42;;;;;;;1.40;100.00;100693.18;1767617;80;21579;-65
2021/12/19 01:15:47;;;;;;;4.58;2.30;;;;;;;1.37;100.00;100691.47;1755858;81;21578;-64
2021/12/19 01:18:14;;;;;;;5.33;2.47;;;;;;;1.37;100.00;100690.20;1763275;80;21051;-66
2021/12/19 01:20:42;;;;;;;3.95;2.30;;;;;;;1.34;100.00;100685.16;1754504;81;21048;-65
2021/12/19 01:23:12;;;;;;;5.58;2.40;;;;;;;1.34;100.00;100681.36;1757610;80;21050;-65
2021/12/19 01:25:39;;;;;;;3.45;2.40;;;;;;;1.32;100.00;100676.71;1751063;80;21019;-65
2021/12/19 01:28:06;;;;;;;4.90;2.10;;;;;;;1.31;100.00;100672.91;1773148;80;21544;-67
2021/12/19 01:30:35;;;;;;;7.20;2.65;;;;;;;1.30;100.00;100667.40;1702811;83;21007;-67
2021/12/19 01:33:05;;;;;;;5.67;2.83;;;;;;;1.34;100.00;100664.87;1752200;80;21059;-68
2021/12/19 01:35:32;;;;;;;7.72;3.17;;;;;;;1.35;100.00;100661.47;1765876;80;21063;-66
2021/12/19 01:37:59;;;;;;;9.58;3.90;;;;;;;1.36;100.00;100659.37;1755636;81;21102;-67
2021/12/19 01:40:27;;;;;;;8.63;3.60;;;;;;;1.36;100.00;100655.56;1755963;81;21624;-65
2021/12/19 01:42:57;;;;;;;11.33;4.53;;;;;;;1.35;100.00;100650.48;1753674;80;21494;-67
2021/12/19 01:45:34;;;;;;;9.23;4.30;;;;;;;1.36;100.00;100652.19;1751599;81;21048;-68
2021/12/19 01:48:06;;;;;;;5.85;2.98;;;;;;;1.32;100.00;100650.08;1725868;81;21028;-67
2021/12/19 01:50:35;;;;;;;5.53;2.40;;;;;;;1.32;100.00;100639.94;1733209;81;21036;-67
2021/12/19 01:53:06;;;;;;;6.60;3.00;;;;;;;1.35;100.00;100637.80;1753893;81;21016;-68
2021/12/19 01:55:33;;;;;;;5.10;2.27;;;;;;;1.36;100.00;100635.27;1757147;81;21055;-67
2021/12/19 01:58:01;;;;;;;2.62;1.82;;;;;;;1.36;100.00;100631.90;1759579;81;21558;-66
2021/12/19 02:00:33;;;;;;;2.55;1.87;;;;;;;1.42;100.00;100626.80;1738966;81;21020;-67
2021/12/19 02:03:01;;;;;;;2.42;1.80;;;;;;;1.44;100.00;100623.83;1756601;80;21105;-67
2021/12/19 02:05:29;;;;;;;2.95;2.00;;;;;;;1.47;100.00;100617.89;1759541;80;21028;-68
2021/12/19 02:07:58;;;;;;;3.45;1.85;;;;;;;1.50;100.00;100610.25;1756551;80;21039;-67
2021/12/19 02:10:29;;;;;;;3.17;2.00;;;;;;;1.42;100.00;100614.12;1755593;81;21004;-67
2021/12/19 02:12:59;;;;;;;6.15;2.10;;;;;;;1.40;100.00;100612.84;1759702;81;21047;-67
2021/12/19 02:15:28;;;;;;;4.80;2.08;;;;;;;1.35;100.00;100602.30;1752000;81;21040;-67
2021/12/19 02:18:00;;;;;;;5.45;2.35;;;;;;;1.47;100.00;100600.13;1753536;80;21024;-68
2021/12/19 02:20:40;;;;;;;3.83;2.02;;;;;;;1.47;100.00;100600.13;1745290;81;21063;-66
2021/12/19 02:23:11;;;;;;;3.60;2.35;;;;;;;1.50;100.00;100601.37;1741927;81;21027;-65
2021/12/19 02:25:40;;;;;;;2.90;2.00;;;;;;;1.48;100.00;100595.06;1723155;82;21078;-65
2021/12/19 02:28:08;;;;;;;5.55;2.75;;;;;;;1.49;100.00;100592.09;1761687;80;21082;-65
2021/12/19 02:30:36;;;;;;;4.33;2.47;;;;;;;1.46;100.00;100581.94;1756701;81;21052;-65
2021/12/19 02:33:11;;;;;;;3.60;2.20;;;;;;;1.43;100.00;100580.27;1752965;81;21233;-65
2021/12/19 02:35:40;;;;;;;4.47;2.52;;;;;;;1.43;100.00;100577.73;1766096;80;21060;-65
2021/12/19 02:38:30;;;;;;;3.12;2.40;;;;;;;1.41;100.00;100575.64;1750855;81;21023;-66
2021/12/19 02:48:56;;;;;;;3.75;2.70;;;;;;;1.42;100.00;100565.05;1760301;80;21563;-67
2021/12/19 02:51:21;;;;;;;6.37;3.30;;;;;;;1.39;100.00;100565.48;1753400;80;21801;-66
2021/12/19 02:53:48;;;;;;;7.17;3.60;;;;;;;1.37;100.00;100567.19;1755405;81;20995;-67
2021/12/19 02:56:15;;;;;;;7.67;4.08;;;;;;;1.40;100.00;100559.58;1714662;82;21153;-68
2021/12/19 02:58:43;;;;;;;8.58;4.37;;;;;;;1.39;100.00;100554.52;1696620;83;21007;-64
2021/12/19 03:01:15;;;;;;;8.23;4.55;;;;;;;1.36;100.00;100557.91;1744520;81;21070;-67
2021/12/19 03:03:42;;;;;;;8.33;4.08;;;;;;;1.43;100.00;100558.71;1759689;80;21023;-68
2021/12/19 03:06:10;;;;;;;10.55;4.50;;;;;;;1.44;100.00;100547.73;1747226;81;21559;-67
2021/12/19 03:08:47;;;;;;;8.28;4.80;;;;;;;1.38;100.00;100535.92;1745846;81;21079;-68
2021/12/19 03:12:00;;;;;;;6.53;4.25;;;;;;;1.40;100.00;100530.41;1750138;81;21510;-67
2021/12/19 03:18:52;;;;;;;4.55;3.45;;;;;;;1.25;100.00;100508.94;1761405;80;21048;-68
2021/12/19 03:21:23;;;;;;;5.58;3.60;;;;;;;1.34;100.00;100504.25;1756209;81;21079;-67
2021/12/19 03:23:47;;;;;;;5.58;3.47;;;;;;;1.32;100.00;100495.38;1760007;81;21020;-68
2021/12/19 03:26:15;;;;;;;5.08;3.70;;;;;;;1.34;100.00;100489.04;1751918;81;21591;-68
2021/12/19 03:28:42;;;;;;;4.42;3.20;;;;;;;1.38;100.00;100478.86;1750656;80;21528;-68
2021/12/19 03:31:11;;;;;;;5.47;3.40;;;;;;;1.34;100.00;100476.36;1755792;81;21567;-68
2021/12/19 03:33:38;;;;;;;5.65;3.60;;;;;;;1.36;100.00;100466.61;1759927;80;21068;-69
2021/12/19 03:36:07;;;;;;;8.10;3.77;;;;;;;1.36;100.00;100460.70;1756387;81;20989;-68
2021/12/19 03:38:39;;;;;;;8.43;4.22;;;;;;;1.31;100.00;100461.15;1699913;82;21043;-68
2021/12/19 03:41:16;;;;;;;7.37;3.60;;;;;;;1.37;100.00;100456.86;1694653;83;21118;-68
2021/12/19 03:43:36;;;;;;;5.92;3.55;;;;;;;1.39;100.00;100456.86;1682956;84;21027;-68
2021/12/19 03:46:04;;;;;;;5.67;3.37;;;;;;;1.32;100.00;100442.56;1702476;83;21060;-68
2021/12/19 03:48:32;;;;;;;8.95;4.58;;;;;;;1.42;100.00;100438.23;1717588;83;21047;-68
2021/12/19 03:51:00;;;;;;;7.08;4.10;;;;;;;1.39;100.00;100440.37;1700033;83;21551;-68
2021/12/19 03:53:27;;;;;;;8.60;4.25;;;;;;;1.35;100.00;100430.67;1701858;83;21545;-68
2021/12/19 03:55:53;;;;;;;7.50;4.35;;;;;;;1.34;100.00;100439.15;1750836;80;21070;-67
2021/12/19 03:58:21;;;;;;;7.25;4.17;;;;;;;1.36;100.00;100439.98;1752293;80;21065;-68
2021/12/19 04:00:51;;;;;;;13.28;4.53;;;;;;;1.36;100.00;100442.95;1755295;80;21042;-68
2021/12/19 04:03:20;;;;;;;9.68;4.83;;;;;;;1.29;100.00;100437.06;1748008;81;21005;-68
2021/12/19 04:05:49;;;;;;;7.85;4.92;;;;;;;1.32;100.00;100445.09;1754658;81;21477;-68
2021/12/19 04:08:20;;;;;;;8.83;5.08;;;;;;;1.34;100.00;100443.39;1753952;81;21005;-68
2021/12/19 04:10:49;;;;;;;8.55;5.20;;;;;;;1.31;100.00;100439.16;1704922;82;21007;-68
2021/12/19 04:13:18;;;;;;;9.68;5.55;;;;;;;1.30;100.00;100431.55;1752772;80;21044;-68
2021/12/19 04:15:46;;;;;;;13.98;6.35;;;;;;;1.26;100.00;100429.48;1751208;81;21587;-69
2021/12/19 04:18:13;;;;;;;13.90;6.25;;;;;;;1.31;100.00;100427.75;1757603;80;20987;-69
2021/12/19 04:20:41;;;;;;;13.68;6.15;;;;;;;1.27;100.00;100427.78;1763652;80;21036;-68
2021/12/19 04:23:07;;;;;;;11.53;6.50;;;;;;;1.18;100.00;100425.73;1761127;81;21346;-68
2021/12/19 04:25:34;;;;;;;8.13;4.90;;;;;;;1.18;100.00;100416.86;1761596;79;21000;-68
2021/12/19 04:28:01;;;;;;;13.03;5.42;;;;;;;1.21;100.00;100410.91;1766715;80;21020;-68
2021/12/19 04:30:29;;;;;;;11.22;5.47;;;;;;;1.26;100.00;100407.07;1753599;81;21580;-68
2021/12/19 04:33:10;;;;;;;9.83;5.53;;;;;;;1.22;100.00;100408.81;1727710;81;21042;-69
2021/12/19 04:35:31;;;;;;;13.28;6.20;;;;;;;1.25;100.00;100403.70;1763613;80;21023;-69
2021/12/19 04:41:03;;;;;;;9.18;5.12;;;;;;;1.24;100.00;100393.16;1765265;80;21082;-67
2021/12/19 04:54:15;;;;;;;8.65;4.67;;;;;;;1.40;100.00;100365.98;1684197;82;22582;-68
2021/12/19 05:04:25;;;;;;;10.50;5.25;;;;;;;1.38;100.00;100357.11;1710538;83;21084;-69
2021/12/19 05:14:04;;;;;;;8.23;4.78;;;;;;;1.35;100.00;100349.52;1716805;83;21088;-68
2021/12/19 05:14:48;;;;;;;12.78;5.30;;;;;;;1.48;100.00;100337.59;1703388;83;21052;-68
2021/12/19 05:17:16;;;;;;;7.87;4.40;;;;;;;1.44;100.00;100321.13;1704423;83;21504;-66
2021/12/19 05:19:47;;;;;;;10.93;5.78;;;;;;;1.44;100.00;100324.92;1701961;83;21524;-67
2021/12/19 05:22:10;;;;;;;9.85;5.45;;;;;;;1.51;100.00;100331.63;1697075;83;21076;-69
2021/12/19 05:27:11;;;;;;;6.83;4.65;;;;;;;1.51;100.00;100317.25;1760728;81;21028;-68
2021/12/19 05:29:39;;;;;;;5.30;4.03;;;;;;;1.54;100.00;100315.96;1685896;83;21525;-67
2021/12/19 05:32:07;;;;;;;6.78;4.55;;;;;;;1.56;100.00;100318.46;1758140;81;21623;-68
2021/12/19 05:34:36;;;;;;;9.93;4.67;;;;;;;1.62;100.00;100303.61;1703318;82;21126;-67
2021/12/19 05:45:20;;;;;;;7.55;4.53;;;;;;;1.50;100.00;100280.06;1758610;80;21016;-68
2021/12/19 05:47:50;;;;;;;6.28;4.08;;;;;;;1.53;100.00;100288.06;1752665;81;21019;-68
2021/12/19 05:50:20;;;;;;;6.10;4.10;;;;;;;1.52;100.00;100277.49;1702296;81;21023;-68
2021/12/19 05:52:49;;;;;;;6.47;4.30;;;;;;;1.52;100.00;100270.74;1732531;81;21547;-68
2021/12/19 05:55:17;;;;;;;5.42;4.00;;;;;;;1.54;100.00;100277.05;1750743;81;21015;-67
2021/12/19 05:57:45;;;;;;;5.33;3.75;;;;;;;1.49;100.00;100257.25;1741597;80;21063;-67
2021/12/19 06:00:16;;;;;;;5.22;3.55;;;;;;;1.52;100.00;100251.72;1773116;81;21129;-68
2021/12/19 06:02:44;;;;;;;5.08;3.72;;;;;;;1.50;100.00;100245.83;1700183;83;21059;-68
2021/12/19 06:05:13;;;;;;;5.62;3.33;;;;;;;1.49;100.00;100242.03;1692670;83;21134;-67
2021/12/19 06:07:42;;;;;;;5.12;3.30;;;;;;;1.55;100.00;100231.38;1704183;83;21044;-67
2021/12/19 06:10:11;;;;;;;4.45;2.67;;;;;;;1.58;100.00;100224.14;1694615;83;21035;-67
2021/12/19 06:12:39;;;;;;;4.62;2.83;;;;;;;1.56;100.00;100222.92;1682196;83;21550;-66
2021/12/19 06:15:09;;;;;;;3.75;2.80;;;;;;;1.59;100.00;100220.77;1695209;82;21630;-68
2021/12/19 06:17:41;;;;;;;4.87;2.92;;;;;;;1.64;100.00;100215.19;1684399;83;21059;-67
2021/12/19 06:20:10;;;;;;;14.70;4.75;;;;;;;1.67;100.00;100200.38;1699125;83;21027;-67
2021/12/19 06:22:38;;;;;;;6.05;3.50;;;;;;;1.69;100.00;100201.20;1700302;83;21059;-67
2021/12/19 06:25:06;;;;;;;5.78;2.87;;;;;;;1.66;100.00;100196.16;1749446;80;21040;-68
2021/12/19 06:27:33;;;;;;;5.35;3.55;;;;;;;1.65;100.00;100191.95;1756733;81;21061;-68
2021/12/19 06:30:00;;;;;;;5.50;3.35;;;;;;;1.65;100.00;100184.34;1750678;80;21005;-67
2021/12/19 06:32:27;;;;;;;7.22;3.55;;;;;;;1.72;100.00;100179.14;1758135;80;21124;-67
2021/12/19 06:34:54;;;;;;;6.00;4.05;;;;;;;1.70;100.00;100181.30;1752045;81;21075;-68
2021/12/19 06:37:20;;;;;;;4.62;3.58;;;;;;;1.68;100.00;100173.70;1753173;80;21070;-67
2021/12/19 06:39:47;;;;;;;8.33;4.10;;;;;;;1.75;100.00;100166.43;1737042;80;21020;-68
2021/12/19 06:42:14;;;;;;;11.63;5.22;;;;;;;1.78;100.00;100166.81;1756052;81;21066;-67
2021/12/19 06:44:40;;;;;;;5.45;3.75;;;;;;;1.73;100.00;100158.44;1760663;81;21060;-68
2021/12/19 06:47:07;;;;;;;5.30;3.75;;;;;;;1.72;100.00;100151.23;1749982;80;21047;-67
2021/12/19 06:49:34;;;;;;;5.65;3.70;;;;;;;1.77;100.00;100148.22;1756423;80;21031;-68
2021/12/19 06:52:01;;;;;;;7.08;4.55;;;;;;;1.73;100.00;100133.89;1782003;79;21515;-67
2021/12/19 06:54:28;;;;;;;7.10;3.98;;;;;;;1.70;100.00;100131.82;1783447;79;20996;-68
2021/12/19 06:56:55;;;;;;;7.00;4.80;;;;;;;1.68;100.00;100121.69;1788806;79;20980;-68
2021/12/19 06:59:21;;;;;;;8.28;5.90;;;;;;;1.67;100.00;100112.85;1782525;79;21056;-67
2021/12/19 07:01:48;;;;;;;9.93;6.87;;;;;;;1.70;100.00;100115.33;1778306;80;20993;-68
2021/12/19 07:04:15;;;;;;;14.43;7.70;;;;;;;1.72;100.00;100111.07;1779063;78;21071;-68
2021/12/19 07:06:42;;;;;;;12.50;7.90;;;;;;;1.76;100.00;100097.48;1771835;79;21023;-68
2021/12/19 07:09:09;;;;;;;11.73;7.50;;;;;;;1.84;100.00;100101.18;1766318;80;20994;-69
2021/12/19 07:11:35;;;;;;;11.08;6.78;;;;;;;1.79;100.00;100098.72;1768206;79;20997;-68
2021/12/19 07:14:02;;;;;;;11.85;7.58;;;;;;;1.79;100.00;100085.59;1775429;80;21059;-68
2021/12/19 07:16:30;;;;;;;9.95;6.40;;;;;;;1.86;100.00;100081.25;1779738;79;21515;-68
2021/12/19 07:18:57;;;;;;;12.20;7.10;;;;;;;1.86;100.00;100086.33;1789678;79;21066;-68
2021/12/19 07:21:24;;;;;;;9.48;5.72;;;;;;;1.86;100.00;100091.41;1771363;80;22279;-68
2021/12/19 07:23:51;;;;;;;8.68;6.03;;;;;;;1.94;100.00;100085.78;1780509;79;21098;-67
2021/12/19 07:26:17;;;;;;;9.48;4.92;;;;;;;1.97;100.00;100088.72;1790930;78;21500;-68
2021/12/19 07:28:47;;;;;;;8.43;5.50;;;;;;;2.02;100.00;100093.72;1779247;79;21003;-68
2021/12/19 07:31:19;;;;;;;7.45;5.10;;;;;;;2.04;100.00;100079.30;1780582;79;21130;-68
2021/12/19 07:33:46;;;;;;;9.38;5.40;;;;;;;2.05;100.00;100080.96;1787904;79;21405;-68
2021/12/19 07:36:14;;;;;;;7.92;5.50;;;;;;;2.07;100.00;100075.42;1781371;79;21601;-68
2021/12/19 07:38:55;;;;;;;8.00;4.58;;;;;;;2.04;100.00;100075.05;1773957;80;21028;-68
2021/12/19 07:41:09;;;;;;;7.15;5.37;;;;;;;2.09;100.00;100077.51;1773128;78;20991;-68
2021/12/19 07:43:38;;;;;;;7.65;4.95;;;;;;;2.10;100.00;100083.84;1758469;80;21094;-69
2021/12/19 07:46:06;;;;;;;7.50;5.58;;;;;;;2.13;100.00;100072.79;1772074;79;21004;-68
2021/12/19 07:48:34;;;;;;;7.65;5.20;;;;;;;2.15;100.00;100074.46;1728274;80;21047;-68
2021/12/19 07:51:01;;;;;;;8.95;5.28;;;;;;;2.17;100.00;100065.52;1766655;79;21067;-68
2021/12/19 07:53:27;;;;;;;10.18;5.85;;;;;;;2.17;100.00;100066.39;1740420;80;21038;-68
2021/12/19 07:55:55;;;;;;;10.58;5.40;;;;;;;2.16;100.00;100060.89;1737107;80;21596;-68
2021/12/19 07:58:22;;;;;;;10.95;5.65;;;;;;;2.15;100.00;100069.38;1727482;82;21094;-69
2021/12/19 08:00:48;;;;;;;10.63;5.70;;;;;;;2.13;100.00;100057.14;1725897;81;21090;-68
2021/12/19 08:03:15;;;;;;;11.40;5.95;;;;;;;2.18;100.00;100052.81;1722697;82;21048;-68
2021/12/19 08:05:43;;;;;;;9.43;5.42;;;;;;;2.15;100.00;100041.86;1727450;81;21561;-69
2021/12/19 08:08:15;;;;;;;7.78;4.85;;;;;;;2.22;100.00;100026.11;1721803;81;21058;-68
2021/12/19 08:13:06;;;;;;;7.30;5.22;;;;;;;2.31;100.00;100020.44;1725006;81;21113;-68
2021/12/19 08:15:35;;;;;;;8.53;5.42;;;;;;;2.33;100.00;100019.98;1727102;81;21525;-68
2021/12/19 08:18:03;;;;;;;7.03;4.60;;;;;;;2.35;100.00;100013.17;1724384;81;21030;-68
2021/12/19 08:20:30;;;;;;;6.92;4.85;;;;;;;2.31;100.00;99998.85;1719972;81;21113;-68
2021/12/19 08:22:57;;;;;;;6.45;4.17;;;;;;;2.33;100.00;99993.72;1720784;82;21505;-68
2021/12/19 08:25:26;;;;;;;7.35;4.15;;;;;;;2.37;100.00;99983.91;1771366;80;21059;-68
2021/12/19 08:27:54;;;;;;;9.48;5.00;;;;;;;2.36;100.00;99975.46;1773778;78;21000;-68
2021/12/19 08:30:23;;;;;;;6.58;4.15;;;;;;;2.43;100.00;99972.36;1768858;79;20961;-68
2021/12/19 08:32:52;;;;;;;5.90;4.12;;;;;;;2.44;100.00;99963.89;1781490;78;20993;-68
2021/12/19 08:35:19;;;;;;;5.15;3.50;;;;;;;2.48;100.00;99955.34;1775987;79;21023;-68
2021/12/19 08:37:46;;;;;;;4.90;3.27;;;;;;;2.51;100.00;99948.91;1773138;78;21062;-67
2021/12/19 08:40:13;;;;;;;6.95;4.00;;;;;;;2.51;100.00;99950.18;1771368;79;21431;-69
2021/12/19 08:42:42;;;;;;;6.22;4.08;;;;;;;2.51;100.00;99950.18;1773047;79;21503;-68
2021/12/19 08:45:11;;;;;;;5.40;2.90;;;;;;;2.54;100.00;99947.59;1786967;78;21568;-67
2021/12/19 08:47:38;;;;;;;5.60;3.60;;;;;;;2.52;100.00;99939.61;1736621;80;21046;-68
2021/12/19 08:50:09;;;;;;;4.40;2.85;;;;;;;2.52;100.00;99939.61;1723403;82;21511;-66
2021/12/19 08:52:37;;;;;;;5.45;3.27;;;;;;;2.49;100.00;99937.11;1752083;80;20985;-66
2021/12/19 08:55:08;;;;;;;5.33;3.40;;;;;;;2.52;100.00;99935.80;1769516;78;21004;-66
2021/12/19 08:57:37;;;;;;;6.50;3.17;;;;;;;2.57;100.00;99929.73;1778398;79;21023;-67
2021/12/19 09:00:10;;;;;;;4.78;3.17;;;;;;;2.52;100.00;99916.74;1782486;79;20960;-67
2021/12/19 09:02:41;;;;;;;4.28;2.75;;;;;;;2.54;100.00;99914.56;1743810;81;21075;-66
2021/12/19 09:05:09;;;;;;;4.67;2.95;;;;;;;2.63;100.00;99899.55;1751785;80;21031;-67
2021/12/19 09:07:38;;;;;;;3.67;2.52;;;;;;;2.71;100.00;99899.39;1759470;81;21040;-68
2021/12/19 09:10:08;;;;;;;4.37;3.08;;;;;;;2.65;100.00;99893.17;1759224;80;21031;-68
2021/12/19 09:12:36;;;;;;;3.98;2.70;;;;;;;2.69;100.00;99879.09;1774481;78;21080;-66
2021/12/19 09:15:05;;;;;;;5.17;2.72;;;;;;;2.72;100.00;99879.48;1723191;81;21087;-66
2021/12/19 09:17:32;;;;;;;5.30;3.00;;;;;;;2.75;100.00;99863.70;1742406;80;21043;-67
2021/12/19 09:19:59;;;;;;;3.65;2.60;;;;;;;2.75;100.00;99863.70;1748698;80;21523;-66
2021/12/19 09:22:28;;;;;;;3.77;2.65;;;;;;;2.81;100.00;99854.67;1759643;80;21064;-66
2021/12/19 09:24:54;;;;;;;3.22;2.52;;;;;;;2.86;100.00;99843.15;1749732;80;21098;-65
2021/12/19 09:27:21;;;;;;;3.75;2.75;;;;;;;2.86;100.00;99843.15;1753409;80;21012;-66
2021/12/19 09:29:48;;;;;;;4.10;3.08;;;;;;;2.85;100.00;99827.48;1759358;81;21496;-66
2021/12/19 09:32:17;;;;;;;4.75;3.33;;;;;;;2.88;100.00;99829.11;1758800;81;20993;-67
2021/12/19 09:34:44;;;;;;;4.17;3.00;;;;;;;2.97;100.00;99823.38;1757829;80;21027;-66
2021/12/19 09:37:12;;;;;;;3.80;2.90;;;;;;;3.03;100.00;99804.60;1767399;79;20964;-66
2021/12/19 09:39:40;;;;;;;5.97;3.20;;;;;;;3.05;100.00;99796.95;1718350;81;21061;-67
2021/12/19 09:42:10;;;;;;;6.65;3.42;;;;;;;3.08;100.00;99781.59;1702366;81;21476;-68
2021/12/19 09:44:40;;;;;;;5.65;3.15;;;;;;;3.13;100.00;99784.88;1750100;80;21009;-68
2021/12/19 09:47:08;;;;;;;6.00;3.75;;;;;;;3.04;100.00;99783.38;1728479;81;21054;-68
2021/12/19 09:49:37;;;;;;;6.08;3.92;;;;;;;3.01;100.00;99783.02;1701973;83;21079;-68
2021/12/19 09:52:11;;;;;;;6.87;4.10;;;;;;;3.03;100.00;99792.33;1710621;81;21039;-68
2021/12/19 09:54:42;;;;;;;6.45;3.98;;;;;;;2.99;100.00;99778.86;1711847;81;21067;-68
2021/12/19 09:57:08;;;;;;;6.83;3.73;;;;;;;2.96;100.00;99774.69;1783766;78;21067;-69
2021/12/19 09:59:35;;;;;;;6.85;3.80;;;;;;;2.96;100.00;99768.33;1785996;78;21023;-68
2021/12/19 10:02:03;;;;;;;10.13;4.60;;;;;;;2.96;100.00;99764.52;1778198;80;21030;-68
2021/12/19 10:04:39;;;;;;;6.47;3.52;;;;;;;2.94;100.00;99753.55;1796731;78;21022;-66
2021/12/19 10:07:29;;;;;;;6.33;4.20;;;;;;;2.95;100.00;99723.43;1757488;80;21051;-66
2021/12/19 10:10:13;;;;;;;7.08;4.33;;;;;;;3.00;100.00;99715.27;1776587;80;21058;-66
2021/12/19 10:12:48;;;;;;;6.20;3.90;;;;;;;2.99;100.00;99720.38;1779081;79;21004;-66
2021/12/19 10:15:13;;;;;;;5.87;4.00;;;;;;;3.02;100.00;99713.93;1777343;79;21001;-66
2021/12/19 10:17:40;;;;;;;4.97;3.85;;;;;;;3.05;100.00;99702.87;1722535;81;21032;-66
2021/12/19 10:20:12;;;;;;;6.97;4.40;;;;;;;2.99;100.00;99694.52;1741054;81;21516;-66
2021/12/19 10:22:44;;;;;;;6.10;4.25;;;;;;;3.00;100.00;99698.73;1778502;79;21067;-66
2021/12/19 10:25:27;;;;;;;8.13;4.58;;;;;;;2.94;100.00;99687.45;1708357;80;21359;-66
2021/12/19 10:28:08;;;;;;;8.40;4.72;;;;;;;2.94;100.00;99688.73;1757545;80;21059;-66
2021/12/19 10:30:49;;;;;;;7.78;5.37;;;;;;;2.91;100.00;99669.73;1735849;81;21014;-67
2021/12/19 10:33:25;;;;;;;8.13;5.53;;;;;;;2.89;100.00;99660.48;1744815;81;21526;-66
2021/12/19 10:35:57;;;;;;;8.68;5.58;;;;;;;2.91;100.00;99658.73;1749921;81;21515;-66
2021/12/19 10:38:29;;;;;;;9.38;5.28;;;;;;;2.90;100.00;99635.03;1742238;80;21521;-66
2021/12/19 10:41:16;;;;;;;9.18;6.30;;;;;;;2.88;100.00;99631.70;1750043;80;21072;-66
2021/12/19 10:43:57;;;;;;;10.35;6.00;;;;;;;2.90;100.00;99624.86;1757637;80;21058;-65
2021/12/19 10:46:27;;;;;;;8.75;5.75;;;;;;;2.90;100.00;99604.53;1763235;79;21060;-67
2021/12/19 10:48:54;;;;;;;11.80;6.87;;;;;;;2.86;100.00;99592.77;1776155;79;21580;-66
2021/12/19 10:51:21;;;;;;;10.85;7.20;;;;;;;2.86;100.00;99592.77;1749687;81;20993;-67
2021/12/19 10:53:53;;;;;;;11.53;7.42;;;;;;;2.88;100.00;99584.67;1758794;80;21032;-66
2021/12/19 10:56:30;;;;;;;9.20;6.67;;;;;;;2.94;100.00;99574.75;1755499;80;21574;-66
2021/12/19 10:59:13;;;;;;;11.08;7.28;;;;;;;2.97;100.00;99572.96;1775273;79;21555;-66
2021/12/19 11:01:44;;;;;;;11.78;7.22;;;;;;;3.01;100.00;99554.20;1740193;81;21039;-68
2021/12/19 11:04:19;;;;;;;10.40;6.67;;;;;;;3.01;100.00;99554.20;1776012;79;21096;-68
2021/12/19 11:06:59;;;;;;;13.45;7.90;;;;;;;2.97;100.00;99539.09;1774520;80;21035;-68
2021/12/19 11:09:29;;;;;;;12.85;8.00;;;;;;;3.07;100.00;99543.47;1807792;78;21554;-67
2021/12/19 11:12:00;;;;;;;11.43;7.42;;;;;;;3.08;100.00;99543.85;1790607;78;21015;-68
2021/12/19 11:14:38;;;;;;;12.00;7.45;;;;;;;3.12;100.00;99537.80;1751045;80;21073;-67
2021/12/19 11:17:10;;;;;;;9.45;6.40;;;;;;;3.11;100.00;99524.71;1711694;83;21028;-67
2021/12/19 11:19:39;;;;;;;10.80;7.25;;;;;;;3.01;100.00;99524.96;1797393;78;21542;-67
2021/12/19 11:22:07;;;;;;;11.10;7.53;;;;;;;3.03;100.00;99530.45;1748317;80;21069;-67
2021/12/19 11:24:34;;;;;;;15.30;7.83;;;;;;;3.07;100.00;99530.77;1795842;78;21244;-66
2021/12/19 11:27:06;;;;;;;14.18;8.23;;;;;;;3.08;100.00;99551.48;1774530;79;21496;-66
2021/12/19 11:29:34;;;;;;;14.18;8.43;;;;;;;3.12;100.00;99546.70;1772746;79;21063;-66
2021/12/19 11:32:06;;;;;;;15.68;8.85;;;;;;;3.20;100.00;99554.52;1777128;78;21780;-67
2021/12/19 11:34:58;;;;;;;15.60;10.25;;;;;;;3.22;100.00;99560.81;1733353;80;21094;-67
2021/12/19 11:37:43;;;;;;;15.00;9.28;;;;;;;3.27;100.00;99548.81;1732244;81;21087;-67
2021/12/19 11:40:17;;;;;;;14.87;9.13;;;;;;;3.29;100.00;99543.69;1783301;79;20987;-67
2021/12/19 11:42:44;;;;;;;18.62;9.45;;;;;;;3.29;100.00;99524.16;1786549;79;21046;-67
2021/12/19 11:45:34;;;;;;;17.50;10.63;;;;;;;3.26;100.00;99520.42;1775255;79;21638;-67
2021/12/19 11:48:10;;;;;;;13.58;8.83;;;;;;;3.30;100.00;99521.17;1783516;78;21016;-68
2021/12/19 11:50:56;;;;;;;15.23;9.38;;;;;;;3.19;100.00;99526.59;1774494;79;21008;-68
2021/12/19 11:53:37;;;;;;;17.62;10.30;;;;;;;3.24;100.00;99520.91;1776954;78;21469;-68
2021/12/19 11:56:11;;;;;;;17.87;9.28;;;;;;;3.25;100.00;99513.69;1773481;78;21026;-68
2021/12/19 11:58:50;;;;;;;;;;;;;;;3.17;100.00;99531.71;1780498;78;21030;-68
2021/12/19 12:01:28;;;;;;;19.90;10.38;;;;;;;3.26;100.00;99527.23;1770331;79;20125;-68
2021/12/19 12:04:14;;;;;;;13.28;8.85;;;;;;;3.29;100.00;99505.53;1786081;78;21488;-68
2021/12/19 12:06:55;;;;;;;14.00;9.33;;;;;;;3.29;100.00;99488.55;1742146;80;20991;-67
2021/12/19 12:09:28;;;;;;;13.62;8.63;;;;;;;3.29;100.00;99489.00;1767538;80;21011;-68
2021/12/19 12:12:11;;;;;;;14.28;9.70;;;;;;;3.23;100.00;99490.02;1695581;81;21063;-68
2021/12/19 12:14:44;;;;;;;15.63;9.25;;;;;;;3.28;100.00;99483.05;1711780;83;21010;-69
2021/12/19 12:17:21;;;;;;;16.15;8.68;;;;;;;3.29;100.00;99479.65;1735651;81;21063;-68
2021/12/19 12:19:49;;;;;;;20.95;10.70;;;;;;;3.27;100.00;99476.33;1738752;81;21013;-68
2021/12/19 12:25:20;;;;;;;15.70;9.63;;;;;;;3.31;100.00;99473.25;1741467;81;21028;-68
2021/12/19 12:27:56;;;;;;;16.93;10.10;;;;;;;3.30;100.00;99467.76;1748804;81;21048;-67
2021/12/19 12:30:30;;;;;;;20.65;11.83;;;;;;;3.30;100.00;99466.48;1745947;81;21040;-68
2021/12/19 12:33:01;;;;;;;21.40;11.63;;;;;;;3.32;100.00;99455.38;1732783;81;21606;-68
2021/12/19 12:35:35;;;;;;;20.05;11.22;;;;;;;3.30;100.00;99446.96;1748848;81;21040;-68
2021/12/19 12:38:03;;;;;;;17.67;11.12;;;;;;;3.29;100.00;99448.30;1737131;81;21540;-68
2021/12/19 12:43:27;;;;;;;20.17;12.05;;;;;;;3.26;100.00;99430.58;1748523;81;21016;-68
2021/12/19 12:46:07;;;;;;;18.92;11.68;;;;;;;3.27;100.00;99425.45;1745466;81;21035;-69